Time;durP1;ratioP1;P1;durP2;ratioP2;P2;SDS_P1;SDS_P2;PMS_P1;PMS_P2;Temp;Humidity;BMP_temperature;BMP_pressure;BME280_temperature;BME280_humidity;BME280_pressure;Samples;Min_cycle;Max_cycle;Signal;HPM_P1;HPM_P2
2024/01/08 00:03:18;;;;;;;6.43;5.82;;;;;;;;;;10051028;28;20089;-73
2024/01/08 00:08:10;;;;;;;8.23;7.38;;;;;;;;;;10058815;28;20053;-73
2024/01/08 00:13:02;;;;;;;6.78;6.18;;;;;;;;;;10053793;28;20046;-73
2024/01/08 00:17:54;;;;;;;6.50;5.93;;;;;;;;;;10067904;28;20051;-73
2024/01/08 00:22:46;;;;;;;7.80;7.03;;;;;;;;;;10067480;28;20377;-73
2024/01/08 00:27:38;;;;;;;6.07;5.47;;;;;;;;;;10061435;28;20120;-73
2024/01/08 00:32:31;;;;;;;6.32;5.78;;;;;;;;;;10069588;28;20045;-73
2024/01/08 00:37:23;;;;;;;6.60;5.90;;;;;;;;;;10051425;28;20425;-73
2024/01/08 00:42:14;;;;;;;5.57;5.07;;;;;;;;;;10054192;28;20072;-73
2024/01/08 00:47:06;;;;;;;5.55;5.05;;;;;;;;;;10076027;28;20069;-73
2024/01/08 00:51:58;;;;;;;5.72;5.22;;;;;;;;;;10077085;28;20368;-73
2024/01/08 00:56:50;;;;;;;5.20;4.75;;;;;;;;;;10072817;28;20049;-73
2024/01/08 01:01:42;;;;;;;6.15;5.05;;;;;;;;;;10069953;28;20096;-73
2024/01/08 01:06:34;;;;;;;7.40;5.13;;;;;;;;;;10070461;28;20464;-73
2024/01/08 01:11:26;;;;;;;6.53;5.93;;;;;;;;;;10069937;28;20156;-73
2024/01/08 01:16:18;;;;;;;6.35;5.75;;;;;;;;;;10069606;28;20068;-73
2024/01/08 01:21:14;;;;;;;6.35;5.75;;;;;;;;;;10069965;28;20049;-73
2024/01/08 01:26:06;;;;;;;7.88;6.40;;;;;;;;;;10069815;28;20095;-73
2024/01/08 01:31:03;;;;;;;7.78;7.07;;;;;;;;;;10069033;28;20129;-74
2024/01/08 01:35:55;;;;;;;7.00;6.25;;;;;;;;;;10068694;28;20107;-73
2024/01/08 01:40:47;;;;;;;8.52;7.47;;;;;;;;;;10069072;28;20096;-73
2024/01/08 01:45:39;;;;;;;8.20;7.35;;;;;;;;;;10069402;28;20038;-73
2024/01/08 01:50:31;;;;;;;8.35;7.10;;;;;;;;;;10068768;28;20049;-73
2024/01/08 01:55:23;;;;;;;7.70;7.00;;;;;;;;;;10067924;28;20479;-74
2024/01/08 02:00:15;;;;;;;7.95;7.25;;;;;;;;;;10026033;28;20038;-73
2024/01/08 02:05:07;;;;;;;9.30;8.40;;;;;;;;;;10030534;28;20125;-73
2024/01/08 02:09:59;;;;;;;9.40;8.27;;;;;;;;;;10030667;28;20042;-73
2024/01/08 02:14:51;;;;;;;9.70;8.75;;;;;;;;;;10033531;28;20062;-73
2024/01/08 02:19:43;;;;;;;8.90;8.07;;;;;;;;;;10057322;28;20041;-74
2024/01/08 02:24:36;;;;;;;8.88;7.93;;;;;;;;;;10029967;28;20064;-74
2024/01/08 02:29:28;;;;;;;10.05;9.02;;;;;;;;;;10030339;28;20421;-73
2024/01/08 02:34:20;;;;;;;10.48;9.25;;;;;;;;;;10028617;28;20048;-73
2024/01/08 02:39:12;;;;;;;10.35;8.40;;;;;;;;;;10029292;28;20052;-73
2024/01/08 02:44:04;;;;;;;10.48;9.50;;;;;;;;;;10030829;28;20425;-73
2024/01/08 02:48:58;;;;;;;9.15;8.18;;;;;;;;;;10030441;28;20042;-73
2024/01/08 02:53:50;;;;;;;10.38;9.35;;;;;;;;;;10029472;28;20053;-74
2024/01/08 02:58:42;;;;;;;9.30;8.38;;;;;;;;;;10029290;28;20037;-73
2024/01/08 03:03:34;;;;;;;10.30;8.52;;;;;;;;;;10028987;28;20038;-73
2024/01/08 03:08:26;;;;;;;10.07;9.02;;;;;;;;;;10028223;28;20488;-73
2024/01/08 03:13:18;;;;;;;10.57;8.90;;;;;;;;;;10028600;28;20045;-73
2024/01/08 03:18:10;;;;;;;9.68;8.68;;;;;;;;;;10029196;28;20456;-73
2024/01/08 03:23:02;;;;;;;8.93;8.07;;;;;;;;;;10028240;28;20064;-73
2024/01/08 03:27:54;;;;;;;13.25;10.40;;;;;;;;;;10028122;28;20096;-73
2024/01/08 03:32:46;;;;;;;9.05;8.15;;;;;;;;;;10027494;28;20045;-73
2024/01/08 03:37:38;;;;;;;9.85;8.85;;;;;;;;;;10028364;28;20364;-73
2024/01/08 03:42:32;;;;;;;9.80;8.82;;;;;;;;;;10027812;28;20148;-73
2024/01/08 03:47:23;;;;;;;10.93;9.70;;;;;;;;;;10027584;28;20042;-73
2024/01/08 03:52:15;;;;;;;11.32;10.15;;;;;;;;;;10035498;28;20398;-74
2024/01/08 03:57:07;;;;;;;11.93;10.80;;;;;;;;;;10028730;28;20590;-73
2024/01/08 04:01:59;;;;;;;10.02;9.13;;;;;;;;;;10028490;28;20156;-73
2024/01/08 04:06:51;;;;;;;9.40;8.30;;;;;;;;;;10026631;28;20084;-73
2024/01/08 04:11:43;;;;;;;9.75;8.90;;;;;;;;;;10027545;28;20049;-74
2024/01/08 04:16:37;;;;;;;12.52;9.93;;;;;;;;;;10027489;28;20410;-73
2024/01/08 04:21:29;;;;;;;12.98;9.57;;;;;;;;;;10027974;28;20045;-73
2024/01/08 04:26:23;;;;;;;10.85;9.68;;;;;;;;;;10027381;28;20245;-74
2024/01/08 04:31:22;;;;;;;9.88;8.60;;;;;;;;;;10028758;28;20448;-73
2024/01/08 04:36:17;;;;;;;11.65;10.18;;;;;;;;;;10034243;28;20124;-73
2024/01/08 04:41:09;;;;;;;10.55;9.50;;;;;;;;;;10034417;28;20046;-74
2024/01/08 04:46:01;;;;;;;11.52;10.25;;;;;;;;;;10034639;28;20496;-73
2024/01/08 04:50:53;;;;;;;10.15;9.15;;;;;;;;;;10033207;28;20076;-73
2024/01/08 04:55:45;;;;;;;10.32;9.43;;;;;;;;;;10033135;28;20053;-73
2024/01/08 05:00:37;;;;;;;10.63;9.27;;;;;;;;;;10034018;28;20100;-73
2024/01/08 05:05:29;;;;;;;10.40;9.40;;;;;;;;;;10032476;28;20124;-73
2024/01/08 05:10:21;;;;;;;10.65;9.65;;;;;;;;;;10034202;28;20316;-73
2024/01/08 05:15:13;;;;;;;9.98;9.00;;;;;;;;;;10032808;28;20045;-73
2024/01/08 05:20:05;;;;;;;11.20;10.20;;;;;;;;;;10033863;28;20076;-73
2024/01/08 05:24:57;;;;;;;10.82;9.73;;;;;;;;;;10031311;28;20069;-74
2024/01/08 05:29:49;;;;;;;9.93;8.95;;;;;;;;;;10033884;28;20092;-73
2024/01/08 05:34:41;;;;;;;11.43;10.05;;;;;;;;;;10031682;28;20440;-73
2024/01/08 05:39:33;;;;;;;13.18;10.73;;;;;;;;;;10032757;28;20045;-73
2024/01/08 05:44:25;;;;;;;11.10;9.27;;;;;;;;;;10031635;28;20096;-74
2024/01/08 05:49:17;;;;;;;11.52;9.73;;;;;;;;;;10033062;28;20041;-74
2024/01/08 05:54:09;;;;;;;10.98;9.90;;;;;;;;;;10032366;28;20038;-73
2024/01/08 05:59:01;;;;;;;13.32;11.60;;;;;;;;;;10030722;28;20386;-73
2024/01/08 06:03:53;;;;;;;10.30;9.30;;;;;;;;;;10030874;28;20052;-73
2024/01/08 06:08:44;;;;;;;11.60;9.55;;;;;;;;;;10032566;28;20504;-73
2024/01/08 06:13:36;;;;;;;12.43;11.23;;;;;;;;;;10035242;28;20052;-73
2024/01/08 06:18:29;;;;;;;11.70;10.50;;;;;;;;;;10030441;28;20123;-73
2024/01/08 06:23:22;;;;;;;13.02;11.52;;;;;;;;;;10030461;28;20069;-74
2024/01/08 06:28:13;;;;;;;10.93;9.90;;;;;;;;;;10026974;28;20354;-74
2024/01/08 06:33:05;;;;;;;10.80;9.70;;;;;;;;;;10028766;28;20145;-74
2024/01/08 06:37:57;;;;;;;10.25;9.25;;;;;;;;;;10028048;28;20089;-74
2024/01/08 06:42:49;;;;;;;11.50;10.20;;;;;;;;;;10029182;28;20042;-74
2024/01/08 06:47:52;;;;;;;10.15;9.13;;;;;;;;;;10035152;28;20045;-74
2024/01/08 06:52:44;;;;;;;11.43;10.23;;;;;;;;;;10027734;28;20073;-74
2024/01/08 06:57:40;;;;;;;11.02;9.88;;;;;;;;;;10027371;28;20042;-74
2024/01/08 07:02:31;;;;;;;12.10;10.35;;;;;;;;;;10034563;28;20049;-74
2024/01/08 07:07:23;;;;;;;13.95;11.13;;;;;;;;;;10030914;28;20076;-74
2024/01/08 07:12:15;;;;;;;11.77;10.70;;;;;;;;;;10029054;28;20100;-74
2024/01/08 07:17:07;;;;;;;11.77;10.65;;;;;;;;;;10027296;28;20070;-73
2024/01/08 07:21:59;;;;;;;10.95;9.90;;;;;;;;;;10027407;28;20050;-73
2024/01/08 07:26:51;;;;;;;10.80;9.77;;;;;;;;;;10028032;28;20053;-73
2024/01/08 07:31:42;;;;;;;10.70;9.63;;;;;;;;;;10036070;28;20088;-74
2024/01/08 07:36:34;;;;;;;12.05;10.80;;;;;;;;;;10038287;28;20103;-74
2024/01/08 07:41:27;;;;;;;10.77;9.68;;;;;;;;;;10027057;28;20034;-74
2024/01/08 07:46:19;;;;;;;11.80;10.10;;;;;;;;;;10026994;28;20056;-74
2024/01/08 07:51:11;;;;;;;12.30;11.10;;;;;;;;;;10026533;28;20057;-74
2024/01/08 07:56:03;;;;;;;10.68;9.68;;;;;;;;;;10026791;28;20369;-74
2024/01/08 08:00:55;;;;;;;12.80;11.52;;;;;;;;;;10029249;28;20046;-74
2024/01/08 08:05:47;;;;;;;11.55;10.05;;;;;;;;;;10025860;28;20049;-74
2024/01/08 08:10:39;;;;;;;12.32;11.13;;;;;;;;;;10031907;28;20117;-75
2024/01/08 08:15:31;;;;;;;16.08;13.30;;;;;;;;;;10032074;28;20104;-75
2024/01/08 08:20:23;;;;;;;13.30;12.10;;;;;;;;;;10033337;28;20042;-76
2024/01/08 08:25:16;;;;;;;13.80;12.48;;;;;;;;;;10030301;28;20069;-79
2024/01/08 08:30:11;;;;;;;11.30;10.20;;;;;;;;;;10032642;28;20171;-80
2024/01/08 08:35:04;;;;;;;12.40;11.13;;;;;;;;;;10033034;28;20050;-79
2024/01/08 08:39:56;;;;;;;13.82;12.43;;;;;;;;;;10029994;28;20077;-78
2024/01/08 08:44:48;;;;;;;16.00;14.40;;;;;;;;;;10030365;28;20134;-79
2024/01/08 08:49:40;;;;;;;13.18;11.77;;;;;;;;;;10029348;28;20045;-79
2024/01/08 08:54:32;;;;;;;13.73;11.43;;;;;;;;;;10031548;28;20078;-79
2024/01/08 08:59:24;;;;;;;13.90;12.60;;;;;;;;;;10033687;28;20129;-79
2024/01/08 09:04:16;;;;;;;11.98;10.18;;;;;;;;;;10032539;28;20133;-78
2024/01/08 09:09:11;;;;;;;11.75;10.65;;;;;;;;;;10025902;28;20437;-79
2024/01/08 09:14:05;;;;;;;12.43;11.13;;;;;;;;;;10025497;28;20137;-78
2024/01/08 09:18:57;;;;;;;13.23;11.93;;;;;;;;;;10031416;28;20080;-78
2024/01/08 09:23:49;;;;;;;12.48;11.30;;;;;;;;;;10027675;28;20058;-79
2024/01/08 09:28:41;;;;;;;14.60;13.00;;;;;;;;;;10023603;28;20535;-79
2024/01/08 09:33:34;;;;;;;15.40;13.77;;;;;;;;;;10025218;28;20506;-77
2024/01/08 09:38:26;;;;;;;13.50;12.00;;;;;;;;;;10032652;28;20053;-77
2024/01/08 09:43:19;;;;;;;13.40;12.10;;;;;;;;;;10025411;28;20563;-77
2024/01/08 09:48:11;;;;;;;12.23;11.02;;;;;;;;;;10026017;28;20065;-77
2024/01/08 09:53:04;;;;;;;12.88;11.57;;;;;;;;;;10023639;28;20476;-78
2024/01/08 09:57:56;;;;;;;13.20;11.93;;;;;;;;;;10029788;28;20140;-77
2024/01/08 10:02:54;;;;;;;13.85;12.55;;;;;;;;;;10029612;28;20045;-77
2024/01/08 10:07:47;;;;;;;12.65;11.40;;;;;;;;;;10029855;28;20415;-76
2024/01/08 10:12:39;;;;;;;13.57;12.13;;;;;;;;;;10030254;28;20042;-77
2024/01/08 10:17:31;;;;;;;19.10;16.20;;;;;;;;;;10034594;28;20483;-77
2024/01/08 10:22:24;;;;;;;12.95;11.65;;;;;;;;;;10030924;28;20061;-78
2024/01/08 10:27:20;;;;;;;13.80;12.40;;;;;;;;;;10030492;28;20038;-76
2024/01/08 10:32:12;;;;;;;16.98;12.63;;;;;;;;;;10028906;28;20058;-77
2024/01/08 10:37:04;;;;;;;13.70;12.20;;;;;;;;;;10029815;28;20440;-77
2024/01/08 10:41:59;;;;;;;13.93;12.50;;;;;;;;;;10030313;28;20061;-77
2024/01/08 10:46:59;;;;;;;21.50;13.13;;;;;;;;;;10037295;28;20427;-77
2024/01/08 10:51:53;;;;;;;12.55;11.32;;;;;;;;;;10028144;28;20427;-76
2024/01/08 10:56:46;;;;;;;12.80;11.52;;;;;;;;;;10027175;28;20115;-77
2024/01/08 11:01:38;;;;;;;15.55;11.15;;;;;;;;;;10027343;28;20100;-77
2024/01/08 11:06:35;;;;;;;15.95;13.60;;;;;;;;;;10027043;28;20476;-77
2024/01/08 11:11:34;;;;;;;18.15;16.45;;;;;;;;;;10027793;28;20053;-77
2024/01/08 11:16:29;;;;;;;13.23;11.93;;;;;;;;;;10027439;28;20042;-77
2024/01/08 11:21:24;;;;;;;14.85;13.45;;;;;;;;;;10028479;28;20041;-77
2024/01/08 11:26:20;;;;;;;11.68;10.35;;;;;;;;;;10038955;28;20042;-77
2024/01/08 11:31:30;;;;;;;12.88;10.88;;;;;;;;;;10058565;28;20091;-76
2024/01/08 11:36:47;;;;;;;12.30;10.43;;;;;;;;;;10063607;28;20046;-78
2024/01/08 11:41:39;;;;;;;14.65;12.25;;;;;;;;;;10051976;28;20056;-81
2024/01/08 11:46:34;;;;;;;12.15;10.88;;;;;;;;;;10055387;28;20069;-79
2024/01/08 11:51:26;;;;;;;11.77;10.32;;;;;;;;;;10067073;28;20084;-77
2024/01/08 11:56:18;;;;;;;15.38;9.73;;;;;;;;;;10047536;28;20393;-79
2024/01/08 12:01:17;;;;;;;11.25;10.15;;;;;;;;;;10036776;28;20033;-79
2024/01/08 12:06:09;;;;;;;14.48;9.18;;;;;;;;;;10026019;28;20124;-79
2024/01/08 12:11:03;;;;;;;11.40;9.18;;;;;;;;;;10025136;28;20061;-79
2024/01/08 12:15:56;;;;;;;13.35;9.88;;;;;;;;;;10025716;28;20085;-79
2024/01/08 12:20:49;;;;;;;14.75;10.07;;;;;;;;;;10024755;28;20124;-78
2024/01/08 12:25:42;;;;;;;10.77;9.40;;;;;;;;;;10026488;28;20042;-79
2024/01/08 12:30:35;;;;;;;13.88;9.50;;;;;;;;;;10024899;28;20431;-78
2024/01/08 12:35:27;;;;;;;11.32;10.23;;;;;;;;;;10026423;28;20473;-79
2024/01/08 12:40:19;;;;;;;10.93;9.70;;;;;;;;;;10024925;28;20504;-79
2024/01/08 12:45:11;;;;;;;13.63;9.10;;;;;;;;;;10009506;28;20056;-79
2024/01/08 12:50:03;;;;;;;9.52;8.55;;;;;;;;;;10026598;28;20045;-79
2024/01/08 12:54:55;;;;;;;15.25;9.40;;;;;;;;;;10039965;28;20415;-79
2024/01/08 12:59:54;;;;;;;9.35;7.20;;;;;;;;;;10034722;28;20054;-78
2024/01/08 13:04:46;;;;;;;9.18;7.20;;;;;;;;;;10032289;28;20042;-79
2024/01/08 13:09:39;;;;;;;9.55;8.48;;;;;;;;;;10033560;28;20473;-79
2024/01/08 13:14:31;;;;;;;18.33;14.57;;;;;;;;;;10032245;28;20052;-79
2024/01/08 13:19:23;;;;;;;11.98;9.40;;;;;;;;;;10032154;28;20042;-79
2024/01/08 13:24:15;;;;;;;11.15;9.45;;;;;;;;;;10038709;28;20038;-79
2024/01/08 13:29:07;;;;;;;9.82;8.30;;;;;;;;;;10031700;28;20125;-79
2024/01/08 13:34:06;;;;;;;12.15;8.48;;;;;;;;;;10027610;28;20046;-79
2024/01/08 13:38:59;;;;;;;11.90;10.68;;;;;;;;;;10030924;28;20080;-79
2024/01/08 13:43:51;;;;;;;14.25;10.55;;;;;;;;;;10034228;28;20124;-79
2024/01/08 13:48:43;;;;;;;9.20;8.23;;;;;;;;;;10033497;28;20169;-79
2024/01/08 13:53:39;;;;;;;10.00;8.98;;;;;;;;;;10036982;28;20077;-79
2024/01/08 13:58:34;;;;;;;12.70;9.43;;;;;;;;;;10033333;28;20453;-79
2024/01/08 14:03:26;;;;;;;14.23;9.73;;;;;;;;;;10034355;28;20113;-79
2024/01/08 14:08:18;;;;;;;13.82;10.18;;;;;;;;;;10030709;28;20068;-79
2024/01/08 14:13:10;;;;;;;12.05;9.65;;;;;;;;;;10033955;28;20034;-79
2024/01/08 14:18:03;;;;;;;12.70;10.20;;;;;;;;;;10034618;28;20099;-79
2024/01/08 14:22:56;;;;;;;13.35;10.98;;;;;;;;;;10036968;28;20042;-79
2024/01/08 14:27:48;;;;;;;13.48;10.25;;;;;;;;;;10032225;28;20137;-79
2024/01/08 14:32:40;;;;;;;15.63;11.15;;;;;;;;;;10030557;28;20065;-79
2024/01/08 14:37:33;;;;;;;12.27;10.32;;;;;;;;;;10031598;28;20391;-78
2024/01/08 14:42:26;;;;;;;20.95;13.35;;;;;;;;;;10032135;28;20056;-79
2024/01/08 14:47:18;;;;;;;13.93;11.32;;;;;;;;;;10030158;28;20077;-78
2024/01/08 14:52:10;;;;;;;14.15;12.75;;;;;;;;;;10037535;28;20057;-79
2024/01/08 14:57:04;;;;;;;14.88;11.45;;;;;;;;;;10037821;28;20147;-79
2024/01/08 15:01:56;;;;;;;12.80;11.50;;;;;;;;;;10032439;28;20069;-79
2024/01/08 15:06:51;;;;;;;12.25;10.95;;;;;;;;;;10034115;28;20057;-79
2024/01/08 15:11:42;;;;;;;11.48;10.35;;;;;;;;;;10039179;28;20119;-78
2024/01/08 15:16:34;;;;;;;13.73;11.88;;;;;;;;;;10030633;28;20055;-79
2024/01/08 15:21:26;;;;;;;17.00;13.02;;;;;;;;;;10029755;28;20045;-78
2024/01/08 15:26:18;;;;;;;16.23;12.90;;;;;;;;;;10030324;28;20050;-78
2024/01/08 15:31:12;;;;;;;18.85;13.82;;;;;;;;;;10042806;28;20049;-79
2024/01/08 15:36:04;;;;;;;23.25;15.25;;;;;;;;;;10033011;28;20487;-78
2024/01/08 15:40:56;;;;;;;18.92;12.63;;;;;;;;;;10033766;28;20136;-78
2024/01/08 15:45:48;;;;;;;14.63;13.20;;;;;;;;;;10040444;28;20052;-78
2024/01/08 15:50:41;;;;;;;15.32;11.32;;;;;;;;;;10038417;28;20057;-79
2024/01/08 15:55:33;;;;;;;15.93;12.00;;;;;;;;;;10030007;28;20046;-79
2024/01/08 16:00:25;;;;;;;13.93;12.43;;;;;;;;;;10028513;28;20081;-78
2024/01/08 16:05:17;;;;;;;18.83;15.40;;;;;;;;;;10037253;28;20095;-78
2024/01/08 16:10:09;;;;;;;19.58;15.43;;;;;;;;;;10024914;28;20054;-78
2024/01/08 16:15:03;;;;;;;15.35;13.85;;;;;;;;;;10030780;28;20068;-78
2024/01/08 16:19:55;;;;;;;16.92;14.73;;;;;;;;;;10024176;28;20081;-78
2024/01/08 16:24:47;;;;;;;22.83;17.20;;;;;;;;;;10024579;28;20058;-78
2024/01/08 16:29:40;;;;;;;14.23;10.82;;;;;;;;;;10028551;28;20068;-79
2024/01/08 16:34:31;;;;;;;21.42;14.35;;;;;;;;;;10025459;28;20492;-82
2024/01/08 16:39:40;;;;;;;22.13;14.88;;;;;;;;;;10027543;28;20046;-82
2024/01/08 16:44:34;;;;;;;15.90;14.35;;;;;;;;;;10028761;28;20510;-82
2024/01/08 16:49:26;;;;;;;24.80;22.15;;;;;;;;;;10025996;28;20046;-82
2024/01/08 16:54:18;;;;;;;12.02;10.65;;;;;;;;;;10024256;28;20049;-76
2024/01/08 16:59:09;;;;;;;22.25;17.77;;;;;;;;;;10032343;28;20045;-76
2024/01/08 17:04:03;;;;;;;32.28;22.48;;;;;;;;;;10025567;28;20205;-76
2024/01/08 17:09:01;;;;;;;19.33;14.00;;;;;;;;;;10027304;28;20163;-75
2024/01/08 17:13:53;;;;;;;29.67;12.40;;;;;;;;;;10039609;28;20431;-76
2024/01/08 17:18:45;;;;;;;20.58;14.23;;;;;;;;;;10031032;28;20133;-75
2024/01/08 17:23:37;;;;;;;22.52;17.40;;;;;;;;;;10032436;28;20038;-75
2024/01/08 17:28:29;;;;;;;21.13;14.52;;;;;;;;;;10031021;28;20074;-75
2024/01/08 17:33:21;;;;;;;28.70;18.48;;;;;;;;;;10028876;28;20060;-75
2024/01/08 17:38:17;;;;;;;28.85;18.98;;;;;;;;;;10028053;28;20144;-75
2024/01/08 17:43:09;;;;;;;22.73;13.15;;;;;;;;;;10035316;28;20402;-76
2024/01/08 17:48:01;;;;;;;21.80;15.73;;;;;;;;;;10027736;28;20046;-75
2024/01/08 17:52:53;;;;;;;17.85;14.68;;;;;;;;;;10028236;28;20049;-75
2024/01/08 17:57:45;;;;;;;20.50;18.35;;;;;;;;;;10060082;28;20374;-75
2024/01/08 18:02:37;;;;;;;20.65;18.50;;;;;;;;;;10061816;28;20121;-75
2024/01/08 18:07:30;;;;;;;20.15;14.82;;;;;;;;;;10061850;28;20447;-76
2024/01/08 18:12:22;;;;;;;22.00;13.75;;;;;;;;;;10060063;28;20121;-74
2024/01/08 18:17:14;;;;;;;22.27;14.48;;;;;;;;;;10059571;28;20077;-75
2024/01/08 18:22:08;;;;;;;14.25;10.57;;;;;;;;;;10052344;28;20048;-76
2024/01/08 18:27:00;;;;;;;20.45;15.63;;;;;;;;;;10056300;28;20100;-75
2024/01/08 18:31:52;;;;;;;35.83;32.03;;;;;;;;;;10051610;28;20148;-77
2024/01/08 18:36:44;;;;;;;18.73;16.67;;;;;;;;;;10048978;28;20151;-75
2024/01/08 18:41:36;;;;;;;20.08;14.98;;;;;;;;;;10061342;28;20049;-75
2024/01/08 18:46:29;;;;;;;19.35;14.63;;;;;;;;;;10041412;28;20042;-75
2024/01/08 18:51:20;;;;;;;17.42;13.80;;;;;;;;;;10060950;28;20128;-75
2024/01/08 18:56:12;;;;;;;26.85;17.80;;;;;;;;;;10054006;28;20144;-75
2024/01/08 19:01:04;;;;;;;23.42;17.27;;;;;;;;;;10052231;28;20128;-75
2024/01/08 19:05:57;;;;;;;18.67;15.13;;;;;;;;;;10061045;28;20045;-75
2024/01/08 19:10:49;;;;;;;18.48;15.15;;;;;;;;;;10057705;28;20484;-75
2024/01/08 19:15:41;;;;;;;32.72;27.10;;;;;;;;;;10048357;28;20072;-75
2024/01/08 19:20:33;;;;;;;22.65;16.05;;;;;;;;;;10047668;28;20049;-75
2024/01/08 19:25:25;;;;;;;24.75;16.67;;;;;;;;;;10060329;28;20419;-75
2024/01/08 19:30:17;;;;;;;17.40;14.07;;;;;;;;;;10055553;28;20053;-76
2024/01/08 19:35:09;;;;;;;17.08;11.45;;;;;;;;;;10051192;28;20053;-75
2024/01/08 19:40:04;;;;;;;17.35;13.02;;;;;;;;;;10054331;28;20045;-75
2024/01/08 19:44:56;;;;;;;12.38;10.50;;;;;;;;;;10055201;28;20472;-75
2024/01/08 19:49:48;;;;;;;14.52;10.88;;;;;;;;;;10049393;28;20115;-76
2024/01/08 19:54:40;;;;;;;14.98;12.43;;;;;;;;;;10042814;28;20044;-76
2024/01/08 19:59:35;;;;;;;10.82;9.38;;;;;;;;;;10044517;28;20129;-75
2024/01/08 20:04:28;;;;;;;17.75;9.80;;;;;;;;;;10051742;28;20056;-76
2024/01/08 20:09:20;;;;;;;10.00;7.97;;;;;;;;;;10063785;28;20046;-76
2024/01/08 20:14:13;;;;;;;14.52;9.15;;;;;;;;;;10055236;28;20160;-76
2024/01/08 20:19:05;;;;;;;13.75;12.02;;;;;;;;;;10064653;28;20458;-75
2024/01/08 20:23:57;;;;;;;24.95;19.42;;;;;;;;;;10051417;28;20126;-74
2024/01/08 20:28:49;;;;;;;31.85;19.20;;;;;;;;;;10062487;28;20129;-74
2024/01/08 20:33:42;;;;;;;19.88;13.73;;;;;;;;;;10066314;28;20469;-74
2024/01/08 20:38:34;;;;;;;14.00;11.43;;;;;;;;;;10064611;28;20172;-74
2024/01/08 20:43:26;;;;;;;14.90;10.32;;;;;;;;;;10062225;28;20072;-74
2024/01/08 20:48:18;;;;;;;16.15;10.68;;;;;;;;;;10061897;28;20052;-75
2024/01/08 20:53:11;;;;;;;13.20;9.38;;;;;;;;;;10059869;28;20061;-75
2024/01/08 20:58:03;;;;;;;12.27;9.50;;;;;;;;;;10062995;28;20042;-74
2024/01/08 21:02:57;;;;;;;11.60;9.38;;;;;;;;;;10057481;28;20392;-74
2024/01/08 21:07:49;;;;;;;9.07;8.13;;;;;;;;;;10032267;28;20050;-74
2024/01/08 21:12:41;;;;;;;7.75;6.95;;;;;;;;;;10047920;28;20095;-74
2024/01/08 21:17:33;;;;;;;12.60;11.02;;;;;;;;;;10063216;28;20038;-74
2024/01/08 21:22:26;;;;;;;17.23;12.13;;;;;;;;;;10048949;28;20042;-73
2024/01/08 21:27:18;;;;;;;19.85;13.32;;;;;;;;;;10061780;28;20119;-73
2024/01/08 21:32:10;;;;;;;23.83;11.95;;;;;;;;;;10058176;28;20140;-74
2024/01/08 21:37:03;;;;;;;12.18;10.65;;;;;;;;;;10050604;28;20065;-73
2024/01/08 21:41:55;;;;;;;10.45;9.00;;;;;;;;;;10061799;28;20073;-73
2024/01/08 21:46:47;;;;;;;13.23;10.95;;;;;;;;;;10063111;28;20049;-73
2024/01/08 21:51:39;;;;;;;40.58;28.55;;;;;;;;;;10062430;28;20063;-73
2024/01/08 21:56:31;;;;;;;69.78;48.50;;;;;;;;;;10061674;28;20040;-75
2024/01/08 22:01:23;;;;;;;34.13;28.38;;;;;;;;;;10060334;28;20045;-74
2024/01/08 22:06:15;;;;;;;29.35;21.63;;;;;;;;;;10058362;28;20060;-75
2024/01/08 22:11:07;;;;;;;18.42;13.63;;;;;;;;;;10057693;28;20045;-73
2024/01/08 22:15:59;;;;;;;20.02;13.10;;;;;;;;;;10061879;28;20045;-73
2024/01/08 22:20:51;;;;;;;19.58;13.43;;;;;;;;;;10064264;28;20046;-73
2024/01/08 22:25:43;;;;;;;19.08;12.88;;;;;;;;;;10065715;28;20526;-75
2024/01/08 22:30:35;;;;;;;12.93;9.20;;;;;;;;;;10066030;28;20396;-75
2024/01/08 22:35:32;;;;;;;14.43;9.75;;;;;;;;;;10065184;28;20302;-75
2024/01/08 22:40:24;;;;;;;22.05;12.05;;;;;;;;;;10065184;28;20073;-75
2024/01/08 22:45:16;;;;;;;17.10;9.93;;;;;;;;;;10075511;28;20095;-74
2024/01/08 22:50:09;;;;;;;16.35;10.98;;;;;;;;;;10065378;28;20277;-75
2024/01/08 22:55:01;;;;;;;16.77;12.23;;;;;;;;;;10064483;28;20187;-75
2024/01/08 22:59:53;;;;;;;15.45;13.13;;;;;;;;;;10065529;28;20091;-74
2024/01/08 23:04:45;;;;;;;21.83;13.68;;;;;;;;;;10065145;28;20061;-75
2024/01/08 23:09:37;;;;;;;9.60;7.78;;;;;;;;;;10064831;28;20050;-74
2024/01/08 23:14:29;;;;;;;10.65;6.60;;;;;;;;;;10064802;28;20128;-74
2024/01/08 23:19:21;;;;;;;8.82;7.78;;;;;;;;;;10064679;28;20517;-74
2024/01/08 23:24:13;;;;;;;21.33;11.13;;;;;;;;;;10064261;28;20128;-74
2024/01/08 23:29:05;;;;;;;20.10;14.13;;;;;;;;;;10065081;28;20264;-74
2024/01/08 23:33:59;;;;;;;14.82;12.07;;;;;;;;;;10064026;28;20111;-74
2024/01/08 23:39:05;;;;;;;17.40;11.98;;;;;;;;;;10064551;28;20144;-73
2024/01/08 23:43:57;;;;;;;10.00;7.50;;;;;;;;;;10064481;28;20055;-74
2024/01/08 23:48:48;;;;;;;11.68;7.85;;;;;;;;;;10064592;28;20133;-74
2024/01/08 23:53:40;;;;;;;12.25;9.10;;;;;;;;;;10028930;28;20132;-73
2024/01/08 23:58:32;;;;;;;9.25;7.85;;;;;;;;;;10036833;28;20086;-73
